sensor_id;sensor_type;location;lat;lon;timestamp;temperature;humidity
17998;DHT22;9124;48.144;17.098;2023-09-30T00:00:39;14.80;92.90
17998;DHT22;9124;48.144;17.098;2023-09-30T00:05:06;14.70;93.30
17998;DHT22;9124;48.144;17.098;2023-09-30T00:09:33;14.60;93.90
17998;DHT22;9124;48.144;17.098;2023-09-30T00:13:59;14.50;94.50
17998;DHT22;9124;48.144;17.098;2023-09-30T00:18:25;14.50;95.10
17998;DHT22;9124;48.144;17.098;2023-09-30T00:22:53;14.40;95.70
17998;DHT22;9124;48.144;17.098;2023-09-30T00:27:19;14.40;96.30
17998;DHT22;9124;48.144;17.098;2023-09-30T00:31:46;14.40;96.90
17998;DHT22;9124;48.144;17.098;2023-09-30T00:36:12;14.40;97.40
17998;DHT22;9124;48.144;17.098;2023-09-30T00:40:39;14.40;98.00
17998;DHT22;9124;48.144;17.098;2023-09-30T00:45:06;14.50;98.40
17998;DHT22;9124;48.144;17.098;2023-09-30T00:49:33;14.50;98.70
17998;DHT22;9124;48.144;17.098;2023-09-30T00:54:00;14.60;99.00
17998;DHT22;9124;48.144;17.098;2023-09-30T00:58:27;14.60;99.40
17998;DHT22;9124;48.144;17.098;2023-09-30T01:02:55;14.60;99.70
17998;DHT22;9124;48.144;17.098;2023-09-30T01:07:23;14.60;99.90
17998;DHT22;9124;48.144;17.098;2023-09-30T01:11:49;14.60;99.90
17998;DHT22;9124;48.144;17.098;2023-09-30T01:16:16;14.50;99.90
17998;DHT22;9124;48.144;17.098;2023-09-30T01:20:42;14.50;99.90
17998;DHT22;9124;48.144;17.098;2023-09-30T01:25:09;14.50;99.90
17998;DHT22;9124;48.144;17.098;2023-09-30T01:29:36;14.50;99.90
17998;DHT22;9124;48.144;17.098;2023-09-30T01:34:05;14.60;99.90
17998;DHT22;9124;48.144;17.098;2023-09-30T01:38:32;14.50;99.90
17998;DHT22;9124;48.144;17.098;2023-09-30T01:42:58;14.50;99.90
17998;DHT22;9124;48.144;17.098;2023-09-30T01:47:25;14.50;99.90
17998;DHT22;9124;48.144;17.098;2023-09-30T01:51:51;14.50;99.90
17998;DHT22;9124;48.144;17.098;2023-09-30T01:56:18;14.50;99.90
17998;DHT22;9124;48.144;17.098;2023-09-30T02:00:44;14.60;99.90
17998;DHT22;9124;48.144;17.098;2023-09-30T02:05:11;14.60;99.90
17998;DHT22;9124;48.144;17.098;2023-09-30T02:09:38;14.60;99.90
17998;DHT22;9124;48.144;17.098;2023-09-30T02:14:05;14.60;99.90
17998;DHT22;9124;48.144;17.098;2023-09-30T02:18:34;14.70;99.90
17998;DHT22;9124;48.144;17.098;2023-09-30T02:23:00;14.80;99.90
17998;DHT22;9124;48.144;17.098;2023-09-30T02:27:28;14.90;99.90
17998;DHT22;9124;48.144;17.098;2023-09-30T02:31:55;14.90;99.90
17998;DHT22;9124;48.144;17.098;2023-09-30T02:36:21;14.90;99.90
17998;DHT22;9124;48.144;17.098;2023-09-30T02:40:50;14.90;99.90
17998;DHT22;9124;48.144;17.098;2023-09-30T02:45:17;15.00;99.90
17998;DHT22;9124;48.144;17.098;2023-09-30T02:49:45;15.00;99.90
17998;DHT22;9124;48.144;17.098;2023-09-30T02:54:11;15.00;99.90
17998;DHT22;9124;48.144;17.098;2023-09-30T02:58:42;15.10;99.90
17998;DHT22;9124;48.144;17.098;2023-09-30T03:03:09;15.20;99.90
17998;DHT22;9124;48.144;17.098;2023-09-30T03:07:35;15.40;99.90
17998;DHT22;9124;48.144;17.098;2023-09-30T03:12:05;15.50;99.90
17998;DHT22;9124;48.144;17.098;2023-09-30T03:16:32;15.60;99.90
17998;DHT22;9124;48.144;17.098;2023-09-30T03:21:01;15.60;99.90
17998;DHT22;9124;48.144;17.098;2023-09-30T03:25:28;15.70;99.90
17998;DHT22;9124;48.144;17.098;2023-09-30T03:29:56;15.70;99.90
17998;DHT22;9124;48.144;17.098;2023-09-30T03:34:23;15.70;99.90
17998;DHT22;9124;48.144;17.098;2023-09-30T03:38:49;15.70;99.90
17998;DHT22;9124;48.144;17.098;2023-09-30T03:43:16;15.80;99.90
17998;DHT22;9124;48.144;17.098;2023-09-30T03:47:43;15.80;99.90
17998;DHT22;9124;48.144;17.098;2023-09-30T03:52:11;15.80;99.90
17998;DHT22;9124;48.144;17.098;2023-09-30T03:56:38;15.80;99.90
17998;DHT22;9124;48.144;17.098;2023-09-30T04:01:04;15.80;99.90
17998;DHT22;9124;48.144;17.098;2023-09-30T04:05:31;15.70;99.90
17998;DHT22;9124;48.144;17.098;2023-09-30T04:10:02;15.70;99.90
17998;DHT22;9124;48.144;17.098;2023-09-30T04:14:30;15.70;99.90
17998;DHT22;9124;48.144;17.098;2023-09-30T04:18:56;15.70;99.90
17998;DHT22;9124;48.144;17.098;2023-09-30T04:23:23;15.80;99.90
17998;DHT22;9124;48.144;17.098;2023-09-30T04:27:49;15.80;99.90
17998;DHT22;9124;48.144;17.098;2023-09-30T04:32:16;15.90;99.90
17998;DHT22;9124;48.144;17.098;2023-09-30T04:36:42;15.90;99.90
17998;DHT22;9124;48.144;17.098;2023-09-30T04:41:08;16.00;99.90
17998;DHT22;9124;48.144;17.098;2023-09-30T04:45:35;16.00;99.90
17998;DHT22;9124;48.144;17.098;2023-09-30T04:50:01;16.10;99.90
17998;DHT22;9124;48.144;17.098;2023-09-30T04:54:33;16.30;99.90
17998;DHT22;9124;48.144;17.098;2023-09-30T04:59:02;16.40;99.90
17998;DHT22;9124;48.144;17.098;2023-09-30T05:03:30;16.50;99.90
17998;DHT22;9124;48.144;17.098;2023-09-30T05:07:56;16.60;99.90
17998;DHT22;9124;48.144;17.098;2023-09-30T05:12:23;16.70;99.90
17998;DHT22;9124;48.144;17.098;2023-09-30T05:16:50;16.80;99.90
17998;DHT22;9124;48.144;17.098;2023-09-30T05:21:16;16.80;99.90
17998;DHT22;9124;48.144;17.098;2023-09-30T05:25:43;16.90;99.90
17998;DHT22;9124;48.144;17.098;2023-09-30T05:30:09;17.00;99.90
17998;DHT22;9124;48.144;17.098;2023-09-30T05:34:37;17.10;99.90
17998;DHT22;9124;48.144;17.098;2023-09-30T05:39:05;17.30;99.90
17998;DHT22;9124;48.144;17.098;2023-09-30T05:43:31;17.40;99.90
17998;DHT22;9124;48.144;17.098;2023-09-30T05:47:58;17.50;99.90
17998;DHT22;9124;48.144;17.098;2023-09-30T05:52:29;17.50;99.90
17998;DHT22;9124;48.144;17.098;2023-09-30T05:56:55;17.40;99.90
17998;DHT22;9124;48.144;17.098;2023-09-30T06:01:22;17.30;99.90
17998;DHT22;9124;48.144;17.098;2023-09-30T06:05:48;17.10;99.90
17998;DHT22;9124;48.144;17.098;2023-09-30T06:10:15;17.00;99.90
17998;DHT22;9124;48.144;17.098;2023-09-30T06:14:42;17.00;99.90
17998;DHT22;9124;48.144;17.098;2023-09-30T06:19:08;16.90;99.90
17998;DHT22;9124;48.144;17.098;2023-09-30T06:23:35;17.00;99.90
17998;DHT22;9124;48.144;17.098;2023-09-30T06:28:01;17.10;99.90
17998;DHT22;9124;48.144;17.098;2023-09-30T06:32:29;17.10;99.90
17998;DHT22;9124;48.144;17.098;2023-09-30T06:36:55;17.20;99.90
17998;DHT22;9124;48.144;17.098;2023-09-30T06:41:22;17.30;99.90
17998;DHT22;9124;48.144;17.098;2023-09-30T06:45:49;17.40;99.90
17998;DHT22;9124;48.144;17.098;2023-09-30T06:50:15;17.50;99.90
17998;DHT22;9124;48.144;17.098;2023-09-30T06:54:42;17.70;99.90
17998;DHT22;9124;48.144;17.098;2023-09-30T06:59:09;17.80;99.90
17998;DHT22;9124;48.144;17.098;2023-09-30T07:03:36;17.90;99.90
17998;DHT22;9124;48.144;17.098;2023-09-30T07:08:03;18.00;99.90
17998;DHT22;9124;48.144;17.098;2023-09-30T07:12:29;18.10;99.90
17998;DHT22;9124;48.144;17.098;2023-09-30T07:16:57;18.20;99.90
17998;DHT22;9124;48.144;17.098;2023-09-30T07:21:24;18.40;99.90
17998;DHT22;9124;48.144;17.098;2023-09-30T07:25:51;18.70;99.90
17998;DHT22;9124;48.144;17.098;2023-09-30T07:30:17;19.00;99.90
17998;DHT22;9124;48.144;17.098;2023-09-30T07:34:44;19.30;99.90
17998;DHT22;9124;48.144;17.098;2023-09-30T07:39:11;19.50;99.90
17998;DHT22;9124;48.144;17.098;2023-09-30T07:43:37;19.70;99.90
17998;DHT22;9124;48.144;17.098;2023-09-30T07:48:04;19.90;99.90
17998;DHT22;9124;48.144;17.098;2023-09-30T07:52:30;19.90;99.90
17998;DHT22;9124;48.144;17.098;2023-09-30T07:56:57;20.00;99.90
17998;DHT22;9124;48.144;17.098;2023-09-30T08:01:25;20.10;99.90
17998;DHT22;9124;48.144;17.098;2023-09-30T08:05:53;20.30;99.90
17998;DHT22;9124;48.144;17.098;2023-09-30T08:10:19;20.50;99.90
17998;DHT22;9124;48.144;17.098;2023-09-30T08:14:47;20.90;99.90
17998;DHT22;9124;48.144;17.098;2023-09-30T08:19:15;21.30;99.90
17998;DHT22;9124;48.144;17.098;2023-09-30T08:23:42;21.60;99.90
17998;DHT22;9124;48.144;17.098;2023-09-30T08:28:10;21.60;99.90
17998;DHT22;9124;48.144;17.098;2023-09-30T08:32:38;22.80;99.90
17998;DHT22;9124;48.144;17.098;2023-09-30T08:37:05;26.40;99.90
17998;DHT22;9124;48.144;17.098;2023-09-30T08:41:34;27.90;92.50
17998;DHT22;9124;48.144;17.098;2023-09-30T08:46:03;28.90;82.90
17998;DHT22;9124;48.144;17.098;2023-09-30T08:50:33;28.80;77.20
17998;DHT22;9124;48.144;17.098;2023-09-30T08:55:01;27.80;72.40
17998;DHT22;9124;48.144;17.098;2023-09-30T08:59:27;28.10;70.40
17998;DHT22;9124;48.144;17.098;2023-09-30T09:03:54;27.20;69.10
17998;DHT22;9124;48.144;17.098;2023-09-30T09:08:22;27.40;70.50
17998;DHT22;9124;48.144;17.098;2023-09-30T09:12:57;28.60;68.90
17998;DHT22;9124;48.144;17.098;2023-09-30T09:17:23;27.20;65.90
17998;DHT22;9124;48.144;17.098;2023-09-30T09:21:58;26.10;67.20
17998;DHT22;9124;48.144;17.098;2023-09-30T09:26:28;25.50;69.20
17998;DHT22;9124;48.144;17.098;2023-09-30T09:30:56;27.00;72.00
17998;DHT22;9124;48.144;17.098;2023-09-30T09:35:22;32.40;72.30
17998;DHT22;9124;48.144;17.098;2023-09-30T09:39:57;35.60;61.50
17998;DHT22;9124;48.144;17.098;2023-09-30T09:44:24;35.20;52.30
17998;DHT22;9124;48.144;17.098;2023-09-30T09:48:53;32.30;51.30
17998;DHT22;9124;48.144;17.098;2023-09-30T09:53:21;29.30;52.80
17998;DHT22;9124;48.144;17.098;2023-09-30T09:57:49;27.30;55.30
17998;DHT22;9124;48.144;17.098;2023-09-30T10:02:16;26.00;57.30
17998;DHT22;9124;48.144;17.098;2023-09-30T10:06:46;25.10;58.80
17998;DHT22;9124;48.144;17.098;2023-09-30T10:11:19;24.70;60.30
17998;DHT22;9124;48.144;17.098;2023-09-30T10:15:45;24.90;61.60
17998;DHT22;9124;48.144;17.098;2023-09-30T10:20:12;25.30;61.90
17998;DHT22;9124;48.144;17.098;2023-09-30T10:24:38;25.70;61.90
17998;DHT22;9124;48.144;17.098;2023-09-30T10:29:09;25.50;61.50
17998;DHT22;9124;48.144;17.098;2023-09-30T10:33:35;25.00;62.00
17998;DHT22;9124;48.144;17.098;2023-09-30T10:42:50;24.10;63.90
17998;DHT22;9124;48.144;17.098;2023-09-30T10:52:09;24.10;65.20
17998;DHT22;9124;48.144;17.098;2023-09-30T10:56:36;24.40;65.60
17998;DHT22;9124;48.144;17.098;2023-09-30T11:01:02;25.10;65.60
17998;DHT22;9124;48.144;17.098;2023-09-30T11:05:33;25.70;64.90
17998;DHT22;9124;48.144;17.098;2023-09-30T11:10:01;25.60;64.00
17998;DHT22;9124;48.144;17.098;2023-09-30T11:14:31;25.60;64.40
17998;DHT22;9124;48.144;17.098;2023-09-30T11:18:57;25.60;64.20
17998;DHT22;9124;48.144;17.098;2023-09-30T11:23:24;25.60;64.10
17998;DHT22;9124;48.144;17.098;2023-09-30T11:27:51;25.20;64.00
17998;DHT22;9124;48.144;17.098;2023-09-30T11:32:28;25.10;64.40
17998;DHT22;9124;48.144;17.098;2023-09-30T11:36:56;25.00;64.70
17998;DHT22;9124;48.144;17.098;2023-09-30T11:41:36;24.90;64.90
17998;DHT22;9124;48.144;17.098;2023-09-30T11:46:08;24.90;65.10
17998;DHT22;9124;48.144;17.098;2023-09-30T11:50:53;24.80;65.00
17998;DHT22;9124;48.144;17.098;2023-09-30T11:55:21;24.70;65.20
17998;DHT22;9124;48.144;17.098;2023-09-30T11:59:49;24.80;65.40
17998;DHT22;9124;48.144;17.098;2023-09-30T12:04:15;24.70;65.00
17998;DHT22;9124;48.144;17.098;2023-09-30T12:08:45;24.60;65.20
17998;DHT22;9124;48.144;17.098;2023-09-30T12:13:11;24.50;65.40
17998;DHT22;9124;48.144;17.098;2023-09-30T12:17:38;24.60;65.50
17998;DHT22;9124;48.144;17.098;2023-09-30T12:22:05;24.60;65.10
17998;DHT22;9124;48.144;17.098;2023-09-30T12:26:32;24.40;65.20
17998;DHT22;9124;48.144;17.098;2023-09-30T12:31:01;24.40;65.30
17998;DHT22;9124;48.144;17.098;2023-09-30T12:35:29;24.40;65.10
17998;DHT22;9124;48.144;17.098;2023-09-30T12:39:58;24.20;64.80
17998;DHT22;9124;48.144;17.098;2023-09-30T12:44:25;23.90;64.90
17998;DHT22;9124;48.144;17.098;2023-09-30T12:48:51;23.60;65.20
17998;DHT22;9124;48.144;17.098;2023-09-30T12:53:18;23.50;65.10
17998;DHT22;9124;48.144;17.098;2023-09-30T12:57:44;23.70;65.80
17998;DHT22;9124;48.144;17.098;2023-09-30T13:02:10;23.50;65.80
17998;DHT22;9124;48.144;17.098;2023-09-30T13:06:37;23.30;66.20
17998;DHT22;9124;48.144;17.098;2023-09-30T13:11:03;23.20;66.80
17998;DHT22;9124;48.144;17.098;2023-09-30T13:15:30;23.10;67.30
17998;DHT22;9124;48.144;17.098;2023-09-30T13:19:57;23.30;67.80
17998;DHT22;9124;48.144;17.098;2023-09-30T13:24:24;23.40;68.10
17998;DHT22;9124;48.144;17.098;2023-09-30T13:28:53;23.40;67.90
17998;DHT22;9124;48.144;17.098;2023-09-30T13:33:19;23.40;67.70
17998;DHT22;9124;48.144;17.098;2023-09-30T13:37:48;23.40;67.60
17998;DHT22;9124;48.144;17.098;2023-09-30T13:42:15;23.40;67.90
17998;DHT22;9124;48.144;17.098;2023-09-30T13:46:41;23.30;67.80
17998;DHT22;9124;48.144;17.098;2023-09-30T13:51:09;23.20;67.90
17998;DHT22;9124;48.144;17.098;2023-09-30T13:55:40;23.20;68.20
17998;DHT22;9124;48.144;17.098;2023-09-30T14:00:07;23.10;68.80
17998;DHT22;9124;48.144;17.098;2023-09-30T14:04:38;23.00;68.40
17998;DHT22;9124;48.144;17.098;2023-09-30T14:09:04;23.00;68.60
17998;DHT22;9124;48.144;17.098;2023-09-30T14:13:31;23.00;68.70
17998;DHT22;9124;48.144;17.098;2023-09-30T14:17:59;22.90;68.60
17998;DHT22;9124;48.144;17.098;2023-09-30T14:22:28;23.00;68.80
17998;DHT22;9124;48.144;17.098;2023-09-30T14:26:54;23.00;68.80
17998;DHT22;9124;48.144;17.098;2023-09-30T14:31:21;23.00;68.50
17998;DHT22;9124;48.144;17.098;2023-09-30T14:35:48;22.90;68.50
17998;DHT22;9124;48.144;17.098;2023-09-30T14:40:14;22.70;68.80
17998;DHT22;9124;48.144;17.098;2023-09-30T14:44:42;22.50;69.20
17998;DHT22;9124;48.144;17.098;2023-09-30T14:49:08;22.40;69.70
17998;DHT22;9124;48.144;17.098;2023-09-30T14:53:35;22.40;70.00
17998;DHT22;9124;48.144;17.098;2023-09-30T14:58:02;22.30;70.00
17998;DHT22;9124;48.144;17.098;2023-09-30T15:02:29;22.20;70.20
17998;DHT22;9124;48.144;17.098;2023-09-30T15:06:55;22.20;70.60
17998;DHT22;9124;48.144;17.098;2023-09-30T15:11:21;22.00;70.60
17998;DHT22;9124;48.144;17.098;2023-09-30T15:15:49;21.80;71.10
17998;DHT22;9124;48.144;17.098;2023-09-30T15:20:16;21.50;71.60
17998;DHT22;9124;48.144;17.098;2023-09-30T15:24:42;21.40;72.20
17998;DHT22;9124;48.144;17.098;2023-09-30T15:29:09;21.10;72.70
17998;DHT22;9124;48.144;17.098;2023-09-30T15:33:35;20.90;73.40
17998;DHT22;9124;48.144;17.098;2023-09-30T15:38:01;20.70;73.90
17998;DHT22;9124;48.144;17.098;2023-09-30T15:42:30;20.60;74.50
17998;DHT22;9124;48.144;17.098;2023-09-30T15:46:57;20.50;75.00
17998;DHT22;9124;48.144;17.098;2023-09-30T15:51:24;20.40;75.50
17998;DHT22;9124;48.144;17.098;2023-09-30T15:55:50;20.30;76.00
17998;DHT22;9124;48.144;17.098;2023-09-30T16:00:17;20.20;76.40
17998;DHT22;9124;48.144;17.098;2023-09-30T16:04:43;20.10;77.00
17998;DHT22;9124;48.144;17.098;2023-09-30T16:09:09;20.00;77.50
17998;DHT22;9124;48.144;17.098;2023-09-30T16:13:35;19.90;77.90
17998;DHT22;9124;48.144;17.098;2023-09-30T16:18:02;19.80;78.40
17998;DHT22;9124;48.144;17.098;2023-09-30T16:22:28;19.60;78.80
17998;DHT22;9124;48.144;17.098;2023-09-30T16:26:55;19.60;79.30
17998;DHT22;9124;48.144;17.098;2023-09-30T16:31:21;19.50;79.70
17998;DHT22;9124;48.144;17.098;2023-09-30T16:35:47;19.50;80.60
17998;DHT22;9124;48.144;17.098;2023-09-30T16:40:16;19.50;80.40
17998;DHT22;9124;48.144;17.098;2023-09-30T16:44:43;19.50;80.60
17998;DHT22;9124;48.144;17.098;2023-09-30T16:49:10;19.40;80.80
17998;DHT22;9124;48.144;17.098;2023-09-30T16:53:37;19.30;81.10
17998;DHT22;9124;48.144;17.098;2023-09-30T16:58:04;19.30;81.50
17998;DHT22;9124;48.144;17.098;2023-09-30T17:02:33;19.20;81.90
17998;DHT22;9124;48.144;17.098;2023-09-30T17:06:59;19.10;82.20
17998;DHT22;9124;48.144;17.098;2023-09-30T17:11:26;19.10;82.60
17998;DHT22;9124;48.144;17.098;2023-09-30T17:15:52;19.00;82.90
17998;DHT22;9124;48.144;17.098;2023-09-30T17:20:18;19.00;83.30
17998;DHT22;9124;48.144;17.098;2023-09-30T17:24:46;19.00;83.70
17998;DHT22;9124;48.144;17.098;2023-09-30T17:29:13;18.90;83.90
17998;DHT22;9124;48.144;17.098;2023-09-30T17:33:39;18.80;84.00
17998;DHT22;9124;48.144;17.098;2023-09-30T17:38:07;18.70;83.60
17998;DHT22;9124;48.144;17.098;2023-09-30T17:42:33;18.50;83.20
17998;DHT22;9124;48.144;17.098;2023-09-30T17:47:00;18.40;83.00
17998;DHT22;9124;48.144;17.098;2023-09-30T17:51:30;18.30;82.70
17998;DHT22;9124;48.144;17.098;2023-09-30T17:55:57;18.20;82.50
17998;DHT22;9124;48.144;17.098;2023-09-30T18:00:24;18.10;82.30
17998;DHT22;9124;48.144;17.098;2023-09-30T18:04:53;18.00;82.20
17998;DHT22;9124;48.144;17.098;2023-09-30T18:09:20;17.90;82.20
17998;DHT22;9124;48.144;17.098;2023-09-30T18:13:47;17.80;82.20
17998;DHT22;9124;48.144;17.098;2023-09-30T18:18:14;17.80;82.60
17998;DHT22;9124;48.144;17.098;2023-09-30T18:22:40;17.80;82.90
17998;DHT22;9124;48.144;17.098;2023-09-30T18:27:07;17.80;83.50
17998;DHT22;9124;48.144;17.098;2023-09-30T18:31:33;17.60;84.10
17998;DHT22;9124;48.144;17.098;2023-09-30T18:35:59;17.50;84.90
17998;DHT22;9124;48.144;17.098;2023-09-30T18:40:25;17.30;85.90
17998;DHT22;9124;48.144;17.098;2023-09-30T18:44:53;17.10;87.00
17998;DHT22;9124;48.144;17.098;2023-09-30T18:49:20;17.00;88.40
17998;DHT22;9124;48.144;17.098;2023-09-30T18:53:46;16.80;89.70
17998;DHT22;9124;48.144;17.098;2023-09-30T18:58:13;16.80;90.40
17998;DHT22;9124;48.144;17.098;2023-09-30T19:02:39;16.60;91.00
17998;DHT22;9124;48.144;17.098;2023-09-30T19:07:05;16.50;91.50
17998;DHT22;9124;48.144;17.098;2023-09-30T19:11:31;16.40;92.10
17998;DHT22;9124;48.144;17.098;2023-09-30T19:15:58;16.30;92.90
17998;DHT22;9124;48.144;17.098;2023-09-30T19:20:24;16.20;93.70
17998;DHT22;9124;48.144;17.098;2023-09-30T19:24:51;16.10;94.50
17998;DHT22;9124;48.144;17.098;2023-09-30T19:29:17;16.00;95.30
17998;DHT22;9124;48.144;17.098;2023-09-30T19:33:44;15.80;96.00
17998;DHT22;9124;48.144;17.098;2023-09-30T19:38:11;15.70;97.00
17998;DHT22;9124;48.144;17.098;2023-09-30T19:42:38;15.60;97.80
17998;DHT22;9124;48.144;17.098;2023-09-30T19:47:08;15.50;98.60
17998;DHT22;9124;48.144;17.098;2023-09-30T19:51:35;15.30;99.40
17998;DHT22;9124;48.144;17.098;2023-09-30T19:56:05;15.20;99.90
17998;DHT22;9124;48.144;17.098;2023-09-30T20:00:37;15.10;99.90
17998;DHT22;9124;48.144;17.098;2023-09-30T20:05:04;15.10;99.90
17998;DHT22;9124;48.144;17.098;2023-09-30T20:09:31;15.00;99.90
17998;DHT22;9124;48.144;17.098;2023-09-30T20:13:58;15.00;99.90
17998;DHT22;9124;48.144;17.098;2023-09-30T20:18:25;15.00;99.90
17998;DHT22;9124;48.144;17.098;2023-09-30T20:22:51;15.00;99.90
17998;DHT22;9124;48.144;17.098;2023-09-30T20:27:18;15.00;99.90
17998;DHT22;9124;48.144;17.098;2023-09-30T20:31:44;14.90;99.90
17998;DHT22;9124;48.144;17.098;2023-09-30T20:36:11;14.90;99.90
17998;DHT22;9124;48.144;17.098;2023-09-30T20:40:43;14.90;99.90
17998;DHT22;9124;48.144;17.098;2023-09-30T20:45:15;15.00;99.90
17998;DHT22;9124;48.144;17.098;2023-09-30T20:49:42;15.10;99.90
17998;DHT22;9124;48.144;17.098;2023-09-30T20:54:09;15.10;99.90
17998;DHT22;9124;48.144;17.098;2023-09-30T20:58:35;15.10;99.90
17998;DHT22;9124;48.144;17.098;2023-09-30T21:03:01;15.00;99.90
17998;DHT22;9124;48.144;17.098;2023-09-30T21:07:29;14.80;99.90
17998;DHT22;9124;48.144;17.098;2023-09-30T21:11:55;14.70;99.90
17998;DHT22;9124;48.144;17.098;2023-09-30T21:16:21;14.60;99.90
17998;DHT22;9124;48.144;17.098;2023-09-30T21:20:47;14.50;99.90
17998;DHT22;9124;48.144;17.098;2023-09-30T21:25:14;14.40;99.90
17998;DHT22;9124;48.144;17.098;2023-09-30T21:29:40;14.30;99.90
17998;DHT22;9124;48.144;17.098;2023-09-30T21:34:07;14.30;99.90
17998;DHT22;9124;48.144;17.098;2023-09-30T21:38:34;14.30;99.90
17998;DHT22;9124;48.144;17.098;2023-09-30T21:43:00;14.20;99.90
17998;DHT22;9124;48.144;17.098;2023-09-30T21:47:27;14.10;99.90
17998;DHT22;9124;48.144;17.098;2023-09-30T21:51:53;14.00;99.90
17998;DHT22;9124;48.144;17.098;2023-09-30T21:56:19;14.00;99.90
17998;DHT22;9124;48.144;17.098;2023-09-30T22:00:46;13.90;99.90
17998;DHT22;9124;48.144;17.098;2023-09-30T22:05:13;13.90;99.90
17998;DHT22;9124;48.144;17.098;2023-09-30T22:09:40;13.90;99.90
17998;DHT22;9124;48.144;17.098;2023-09-30T22:14:07;13.80;99.90
17998;DHT22;9124;48.144;17.098;2023-09-30T22:18:33;13.70;99.90
17998;DHT22;9124;48.144;17.098;2023-09-30T22:23:03;13.70;99.90
17998;DHT22;9124;48.144;17.098;2023-09-30T22:27:30;13.70;99.90
17998;DHT22;9124;48.144;17.098;2023-09-30T22:31:57;13.60;99.90
17998;DHT22;9124;48.144;17.098;2023-09-30T22:36:23;13.60;99.90
17998;DHT22;9124;48.144;17.098;2023-09-30T22:40:50;13.50;99.90
17998;DHT22;9124;48.144;17.098;2023-09-30T22:45:16;13.40;99.90
17998;DHT22;9124;48.144;17.098;2023-09-30T22:49:42;13.40;99.90
17998;DHT22;9124;48.144;17.098;2023-09-30T22:54:08;13.30;99.90
17998;DHT22;9124;48.144;17.098;2023-09-30T22:58:36;13.30;99.90
17998;DHT22;9124;48.144;17.098;2023-09-30T23:03:02;13.20;99.90
17998;DHT22;9124;48.144;17.098;2023-09-30T23:07:29;13.10;99.90
17998;DHT22;9124;48.144;17.098;2023-09-30T23:11:55;13.10;99.90
17998;DHT22;9124;48.144;17.098;2023-09-30T23:16:21;13.00;99.90
17998;DHT22;9124;48.144;17.098;2023-09-30T23:20:48;13.00;99.90
17998;DHT22;9124;48.144;17.098;2023-09-30T23:25:15;12.90;99.90
17998;DHT22;9124;48.144;17.098;2023-09-30T23:29:44;12.90;99.90
17998;DHT22;9124;48.144;17.098;2023-09-30T23:34:10;12.80;99.90
17998;DHT22;9124;48.144;17.098;2023-09-30T23:38:39;12.80;99.90
17998;DHT22;9124;48.144;17.098;2023-09-30T23:43:06;12.70;99.90
17998;DHT22;9124;48.144;17.098;2023-09-30T23:47:34;12.70;99.90
17998;DHT22;9124;48.144;17.098;2023-09-30T23:52:00;12.70;99.90
17998;DHT22;9124;48.144;17.098;2023-09-30T23:56:27;12.60;99.90
